createdAt,value
2022-11-05T00:00:38.512Z,2.78
2022-11-05T00:03:24.917Z,2.85
2022-11-05T00:06:12.116Z,2.35
2022-11-05T00:08:59.396Z,2.67
2022-11-05T00:11:46.271Z,3.08
2022-11-05T00:14:32.148Z,3.53
2022-11-05T00:16:59.032Z,2.58
2022-11-05T00:19:25.831Z,3.50
2022-11-05T00:22:11.031Z,2.83
2022-11-05T00:24:56.251Z,2.30
2022-11-05T00:27:23.054Z,2.40
2022-11-05T00:29:49.850Z,2.85
2022-11-05T00:32:16.623Z,2.30
2022-11-05T00:34:43.433Z,2.40
2022-11-05T00:37:10.216Z,2.50
2022-11-05T00:39:37.506Z,3.78
2022-11-05T00:42:23.292Z,2.60
2022-11-05T00:45:02.323Z,2.28
2022-11-05T00:47:49.859Z,2.58
2022-11-05T00:50:18.495Z,3.40
2022-11-05T00:52:56.211Z,3.53
2022-11-05T00:55:30.921Z,3.78
2022-11-05T00:57:58.257Z,2.88
2022-11-05T01:00:28.766Z,2.20
2022-11-05T01:03:01.641Z,2.80
2022-11-05T01:05:31.115Z,3.70
2022-11-05T01:07:58.734Z,3.75
2022-11-05T01:10:25.919Z,3.80
2022-11-05T01:12:53.192Z,4.75
2022-11-05T01:15:21.189Z,4.45
2022-11-05T01:17:48.028Z,4.88
2022-11-05T01:20:15.168Z,5.07
2022-11-05T01:22:42.501Z,5.07
2022-11-05T01:25:09.833Z,5.22
2022-11-05T01:27:38.063Z,6.22
2022-11-05T01:30:07.618Z,4.82
2022-11-05T01:32:36.630Z,5.60
2022-11-05T01:35:06.307Z,6.32
2022-11-05T01:37:34.710Z,7.43
2022-11-05T01:40:02.089Z,5.50
2022-11-05T01:42:32.778Z,9.57
2022-11-05T01:45:03.104Z,9.00
2022-11-05T01:47:37.436Z,7.82
2022-11-05T01:50:28.119Z,6.32
2022-11-05T01:53:03.832Z,6.30
2022-11-05T01:55:35.785Z,8.07
2022-11-05T01:58:06.594Z,6.55
2022-11-05T02:00:35.142Z,5.63
2022-11-05T02:03:02.102Z,5.38
2022-11-05T02:05:29.019Z,4.85
2022-11-05T02:07:56.588Z,5.05
2022-11-05T02:10:24.222Z,4.97
2022-11-05T02:12:51.567Z,4.10
2022-11-05T02:15:36.555Z,3.60
2022-11-05T02:18:28.315Z,3.42
2022-11-05T02:21:41.070Z,4.20
2022-11-05T02:24:33.466Z,3.75
2022-11-05T02:27:56.379Z,3.55
2022-11-05T02:30:58.703Z,2.60
2022-11-05T02:33:56.683Z,2.25
2022-11-05T02:36:32.262Z,2.92
2022-11-05T02:39:08.051Z,2.30
2022-11-05T02:42:00.653Z,2.35
2022-11-05T02:45:00.028Z,2.53
2022-11-05T02:47:48.319Z,2.50
2022-11-05T02:50:30.788Z,2.90
2022-11-05T02:53:12.949Z,3.22
2022-11-05T02:55:50.337Z,2.90
2022-11-05T02:58:17.359Z,2.22
2022-11-05T03:00:50.657Z,2.17
2022-11-05T03:03:37.885Z,2.55
2022-11-05T03:06:35.103Z,2.42
2022-11-05T03:09:13.874Z,1.83
2022-11-05T03:12:21.611Z,1.90
2022-11-05T03:15:30.409Z,1.90
2022-11-05T03:18:22.167Z,2.40
2022-11-05T03:21:12.211Z,2.08
2022-11-05T03:24:00.748Z,1.83
2022-11-05T03:27:10.988Z,1.50
2022-11-05T03:29:43.673Z,2.10
2022-11-05T03:32:12.380Z,2.13
2022-11-05T03:34:46.946Z,1.98
2022-11-05T03:37:17.645Z,1.88
2022-11-05T03:39:50.542Z,1.58
2022-11-05T03:42:22.621Z,1.73
2022-11-05T03:44:54.318Z,1.70
2022-11-05T03:47:29.138Z,1.80
2022-11-05T03:50:14.324Z,2.15
2022-11-05T03:52:49.392Z,1.90
2022-11-05T03:55:16.720Z,1.70
2022-11-05T03:57:49.635Z,2.10
2022-11-05T04:00:16.889Z,1.20
2022-11-05T04:02:43.836Z,1.65
2022-11-05T04:05:11.972Z,1.80
2022-11-05T04:07:57.814Z,1.70
2022-11-05T04:10:43.254Z,1.85
2022-11-05T04:13:27.605Z,1.25
2022-11-05T04:16:14.789Z,1.50
2022-11-05T04:18:42.803Z,1.58
2022-11-05T04:21:29.434Z,1.67
2022-11-05T04:24:09.036Z,1.67
2022-11-05T04:26:43.569Z,1.65
2022-11-05T04:29:29.712Z,1.70
2022-11-05T04:31:57.064Z,1.38
2022-11-05T04:34:23.980Z,1.60
2022-11-05T04:36:52.470Z,1.42
2022-11-05T04:39:20.719Z,1.42
2022-11-05T04:41:48.716Z,1.30
2022-11-05T04:44:16.888Z,1.60
2022-11-05T04:46:43.998Z,1.52
2022-11-05T04:49:10.922Z,1.33
2022-11-05T04:51:37.774Z,1.80
2022-11-05T04:54:04.692Z,1.98
2022-11-05T04:56:31.693Z,1.98
2022-11-05T04:58:58.532Z,1.58
2022-11-05T05:01:25.892Z,1.58
2022-11-05T05:03:54.326Z,1.67
2022-11-05T05:06:21.932Z,1.30
2022-11-05T05:08:50.987Z,1.25
2022-11-05T05:11:20.757Z,1.50
2022-11-05T05:13:48.250Z,1.40
2022-11-05T05:16:24.836Z,2.03
2022-11-05T05:18:52.739Z,2.38
2022-11-05T05:21:40.893Z,1.85
2022-11-05T05:24:17.379Z,1.65
2022-11-05T05:26:50.165Z,2.10
2022-11-05T05:29:18.039Z,1.90
2022-11-05T05:31:45.631Z,1.88
2022-11-05T05:34:14.101Z,2.00
2022-11-05T05:36:41.423Z,2.00
2022-11-05T05:39:10.754Z,2.00
2022-11-05T05:41:37.590Z,2.17
2022-11-05T05:44:06.117Z,1.92
2022-11-05T05:46:33.251Z,2.10
2022-11-05T05:49:00.163Z,2.33
2022-11-05T05:51:27.093Z,2.58
2022-11-05T05:53:54.833Z,2.90
2022-11-05T05:56:22.149Z,2.30
2022-11-05T05:58:49.068Z,2.13
2022-11-05T06:01:19.758Z,1.98
2022-11-05T06:03:48.016Z,2.50
2022-11-05T06:06:20.021Z,2.17
2022-11-05T06:08:47.637Z,2.97
2022-11-05T06:11:14.699Z,1.98
2022-11-05T06:13:41.484Z,2.63
2022-11-05T06:16:09.857Z,2.30
2022-11-05T06:18:37.442Z,1.95
2022-11-05T06:21:08.336Z,2.85
2022-11-05T06:23:37.747Z,2.22
2022-11-05T06:26:11.533Z,2.20
2022-11-05T06:28:38.653Z,2.17
2022-11-05T06:31:05.766Z,3.42
2022-11-05T06:33:32.539Z,1.85
2022-11-05T06:36:04.175Z,3.92
2022-11-05T06:38:36.592Z,4.75
2022-11-05T06:41:09.004Z,4.70
2022-11-05T06:43:38.226Z,2.90
2022-11-05T06:46:05.974Z,2.80
2022-11-05T06:48:33.155Z,2.70
2022-11-05T06:50:59.998Z,4.05
2022-11-05T06:53:27.581Z,3.50
2022-11-05T06:55:54.485Z,4.07
2022-11-05T06:58:21.408Z,4.22
2022-11-05T07:00:48.670Z,4.40
2022-11-05T07:03:15.954Z,4.38
2022-11-05T07:05:48.204Z,3.80
2022-11-05T07:08:15.821Z,4.23
2022-11-05T07:10:42.891Z,4.63
2022-11-05T07:13:09.812Z,4.07
2022-11-05T07:15:37.676Z,3.05
2022-11-05T07:18:07.383Z,4.05
2022-11-05T07:20:35.250Z,4.72
2022-11-05T07:23:08.752Z,2.80
2022-11-05T07:25:36.540Z,3.25
2022-11-05T07:28:04.766Z,3.50
2022-11-05T07:30:33.818Z,5.40
2022-11-05T07:33:00.797Z,3.00
2022-11-05T07:35:28.099Z,4.22
2022-11-05T07:37:55.804Z,3.97
2022-11-05T07:40:25.532Z,6.07
2022-11-05T07:42:58.232Z,6.95
2022-11-05T07:45:27.082Z,7.07
2022-11-05T07:48:05.272Z,9.93
2022-11-05T07:50:35.905Z,8.73
2022-11-05T07:53:10.802Z,9.80
2022-11-05T07:55:38.222Z,10.25
2022-11-05T07:58:05.029Z,12.38
2022-11-05T08:00:32.461Z,8.02
2022-11-05T08:03:13.936Z,8.95
2022-11-05T08:05:44.901Z,9.88
2022-11-05T08:08:15.262Z,10.27
2022-11-05T08:10:42.923Z,10.13
2022-11-05T08:13:11.837Z,9.27
2022-11-05T08:15:39.337Z,6.40
2022-11-05T08:18:11.532Z,6.22
2022-11-05T08:20:39.524Z,5.23
2022-11-05T08:23:06.601Z,7.05
2022-11-05T08:25:33.982Z,5.60
2022-11-05T08:28:07.846Z,5.38
2022-11-05T08:30:35.522Z,4.93
2022-11-05T08:33:06.865Z,5.80
2022-11-05T08:35:36.446Z,5.47
2022-11-05T08:38:05.892Z,5.28
2022-11-05T08:40:35.072Z,5.20
2022-11-05T08:43:03.994Z,4.90
2022-11-05T08:45:34.940Z,6.22
2022-11-05T08:48:07.735Z,5.65
2022-11-05T08:50:35.891Z,5.20
2022-11-05T08:53:03.144Z,5.15
2022-11-05T08:55:30.048Z,5.25
2022-11-05T08:58:03.018Z,5.40
2022-11-05T09:00:32.811Z,5.28
2022-11-05T09:03:01.736Z,4.93
2022-11-05T09:05:30.936Z,4.22
2022-11-05T09:08:01.145Z,5.47
2022-11-05T09:10:28.556Z,5.63
2022-11-05T09:12:55.621Z,5.90
2022-11-05T09:15:23.252Z,6.45
2022-11-05T09:17:50.743Z,7.45
2022-11-05T09:20:17.847Z,7.10
2022-11-05T09:22:46.229Z,6.55
2022-11-05T09:25:13.943Z,6.93
2022-11-05T09:27:40.758Z,7.57
2022-11-05T09:30:09.380Z,6.43
2022-11-05T09:32:36.595Z,7.35
2022-11-05T09:35:03.938Z,7.50
2022-11-05T09:37:31.036Z,7.63
2022-11-05T09:39:57.816Z,6.93
2022-11-05T09:42:42.517Z,6.80
2022-11-05T09:45:20.795Z,6.28
2022-11-05T09:48:04.257Z,6.63
2022-11-05T09:50:37.082Z,6.38
2022-11-05T09:53:05.085Z,6.20
2022-11-05T09:55:43.240Z,6.75
2022-11-05T09:58:25.914Z,4.68
2022-11-05T10:00:56.042Z,5.13
2022-11-05T10:03:25.591Z,5.53
2022-11-05T10:05:54.721Z,6.40
2022-11-05T10:08:30.923Z,6.13
2022-11-05T10:11:10.434Z,5.93
2022-11-05T10:13:45.753Z,6.68
2022-11-05T10:16:32.771Z,7.50
2022-11-05T10:19:25.168Z,6.63
2022-11-05T10:22:07.142Z,6.55
2022-11-05T10:24:34.995Z,6.35
2022-11-05T10:27:02.548Z,6.32
2022-11-05T10:29:33.549Z,6.07
2022-11-05T10:32:05.672Z,6.70
2022-11-05T10:34:36.766Z,7.93
2022-11-05T10:37:04.394Z,8.60
2022-11-05T10:39:32.639Z,7.80
2022-11-05T10:42:47.422Z,7.18
2022-11-05T10:45:49.252Z,6.95
2022-11-05T10:48:47.915Z,7.10
2022-11-05T10:51:15.280Z,7.18
2022-11-05T10:54:01.876Z,6.05
2022-11-05T10:56:38.721Z,6.50
2022-11-05T10:59:20.289Z,6.85
2022-11-05T11:01:47.445Z,6.38
2022-11-05T11:04:23.376Z,7.38
2022-11-05T11:06:54.008Z,6.80
2022-11-05T11:09:31.171Z,5.45
2022-11-05T11:12:25.969Z,6.70
2022-11-05T11:15:13.329Z,6.20
2022-11-05T11:17:41.547Z,6.82
2022-11-05T11:20:29.088Z,5.93
2022-11-05T11:23:15.878Z,7.60
2022-11-05T11:25:51.807Z,7.43
2022-11-05T11:28:32.866Z,9.15
2022-11-05T11:31:14.761Z,10.40
2022-11-05T11:33:45.510Z,8.98
2022-11-05T11:36:19.114Z,7.45
2022-11-05T11:38:46.231Z,8.25
2022-11-05T11:41:31.594Z,18.83
2022-11-05T11:44:27.072Z,10.57
2022-11-05T11:46:58.459Z,14.48
2022-11-05T11:49:52.187Z,11.00
2022-11-05T11:52:35.463Z,10.27
2022-11-05T11:57:55.190Z,10.23
2022-11-05T12:00:25.976Z,8.55
2022-11-05T12:03:37.446Z,11.50
2022-11-05T12:06:57.035Z,15.93
2022-11-05T12:09:54.771Z,11.38
2022-11-05T12:12:49.480Z,13.95
2022-11-05T12:15:46.636Z,15.30
2022-11-05T12:18:53.688Z,31.70
2022-11-05T12:22:08.152Z,19.77
2022-11-05T12:24:50.044Z,42.35
2022-11-05T12:27:29.180Z,13.13
2022-11-05T12:30:06.149Z,33.65
2022-11-05T12:33:03.785Z,23.98
2022-11-05T12:35:56.466Z,21.20
2022-11-05T12:38:48.888Z,13.63
2022-11-05T12:41:25.835Z,14.93
2022-11-05T12:44:12.461Z,16.85
2022-11-05T12:47:19.946Z,18.42
2022-11-05T12:50:15.732Z,10.45
2022-11-05T12:53:05.441Z,9.82
2022-11-05T12:55:45.505Z,11.57
2022-11-05T12:58:27.288Z,14.88
2022-11-05T13:01:34.676Z,14.07
2022-11-05T13:04:08.894Z,14.88
2022-11-05T13:06:42.573Z,16.98
2022-11-05T13:09:12.254Z,14.48
2022-11-05T13:11:51.735Z,13.90
2022-11-05T13:14:25.684Z,14.32
2022-11-05T13:17:15.310Z,14.85
2022-11-05T13:20:11.719Z,16.27
2022-11-05T13:22:55.229Z,16.45
2022-11-05T13:25:25.566Z,12.77
2022-11-05T13:28:02.836Z,12.18
2022-11-05T13:30:42.897Z,14.60
2022-11-05T13:33:44.920Z,13.73
2022-11-05T13:36:44.523Z,9.20
2022-11-05T13:39:22.549Z,14.13
2022-11-05T13:42:30.240Z,11.18
2022-11-05T13:45:24.460Z,12.07
2022-11-05T13:48:27.657Z,11.50
2022-11-05T13:50:54.381Z,13.48
2022-11-05T13:53:49.145Z,13.13
2022-11-05T13:56:52.322Z,12.02
2022-11-05T13:59:34.142Z,12.32
2022-11-05T14:02:15.390Z,13.85
2022-11-05T14:05:00.537Z,11.57
2022-11-05T14:07:45.887Z,10.68
2022-11-05T14:10:40.031Z,11.15
2022-11-05T14:13:39.075Z,9.55
2022-11-05T14:16:29.518Z,10.35
2022-11-05T14:19:19.511Z,7.68
2022-11-05T14:21:54.027Z,7.38
2022-11-05T14:24:25.705Z,6.95
2022-11-05T14:27:01.704Z,7.60
2022-11-05T14:29:48.783Z,8.35
2022-11-05T14:32:21.264Z,8.90
2022-11-05T14:34:55.179Z,8.30
2022-11-05T14:37:36.840Z,7.47
2022-11-05T14:40:32.720Z,7.85
2022-11-05T14:43:04.167Z,7.82
2022-11-05T14:45:40.696Z,6.13
2022-11-05T14:48:49.664Z,5.53
2022-11-05T14:51:42.623Z,5.20
2022-11-05T14:54:21.444Z,6.47
2022-11-05T14:57:00.650Z,6.45
2022-11-05T14:59:28.247Z,7.03
2022-11-05T15:02:05.195Z,6.35
2022-11-05T15:04:45.527Z,5.65
2022-11-05T15:07:32.861Z,5.97
2022-11-05T15:10:10.489Z,4.30
2022-11-05T15:12:52.874Z,4.30
2022-11-05T15:15:29.484Z,4.35
2022-11-05T15:18:27.383Z,4.90
2022-11-05T15:20:58.988Z,5.47
2022-11-05T15:23:36.364Z,4.20
2022-11-05T15:26:28.283Z,4.90
2022-11-05T15:28:56.322Z,5.15
2022-11-05T15:31:33.710Z,5.38
2022-11-05T15:34:20.262Z,5.70
2022-11-05T15:36:57.502Z,5.88
2022-11-05T15:39:31.177Z,6.80
2022-11-05T15:42:04.888Z,6.78
2022-11-05T15:44:41.491Z,7.35
2022-11-05T15:47:23.728Z,6.43
2022-11-05T15:49:56.633Z,5.72
2022-11-05T15:52:31.285Z,6.28
2022-11-05T15:55:09.125Z,6.00
2022-11-05T15:57:40.015Z,5.60
2022-11-05T16:00:17.384Z,6.35
2022-11-05T16:03:18.502Z,6.40
2022-11-05T16:05:48.292Z,6.50
2022-11-05T16:08:20.653Z,5.82
2022-11-05T16:10:52.770Z,7.40
2022-11-05T16:13:36.671Z,6.57
2022-11-05T16:16:32.165Z,5.88
2022-11-05T16:18:59.145Z,5.97
2022-11-05T16:21:26.162Z,6.25
2022-11-05T16:23:59.950Z,7.68
2022-11-05T16:29:29.367Z,6.63
2022-11-05T16:31:58.089Z,8.40
2022-11-05T16:34:38.270Z,7.93
2022-11-05T16:37:13.996Z,7.30
2022-11-05T16:39:41.305Z,7.57
2022-11-05T16:42:34.257Z,5.93
2022-11-05T16:45:01.111Z,6.55
2022-11-05T16:47:28.009Z,9.60
2022-11-05T16:49:55.002Z,8.43
2022-11-05T16:52:21.821Z,7.68
2022-11-05T16:54:48.674Z,8.95
2022-11-05T16:57:33.766Z,9.55
2022-11-05T17:00:01.312Z,11.70
2022-11-05T17:02:28.761Z,9.73
2022-11-05T17:04:55.796Z,8.65
2022-11-05T17:07:22.727Z,9.05
2022-11-05T17:09:49.574Z,8.23
2022-11-05T17:12:16.644Z,8.00
2022-11-05T17:14:43.423Z,7.05
2022-11-05T17:17:10.768Z,7.50
2022-11-05T17:19:42.353Z,6.78
2022-11-05T17:22:09.384Z,7.78
2022-11-05T17:24:36.287Z,9.43
2022-11-05T17:27:03.218Z,7.70
2022-11-05T17:29:30.032Z,7.32
2022-11-05T17:31:56.849Z,8.45
2022-11-05T17:34:23.758Z,8.30
2022-11-05T17:36:50.583Z,7.20
2022-11-05T17:39:17.414Z,5.80
2022-11-05T17:41:44.439Z,6.68
2022-11-05T17:44:12.113Z,6.65
2022-11-05T17:46:38.918Z,7.15
2022-11-05T17:49:05.745Z,6.53
2022-11-05T17:51:34.269Z,7.40
2022-11-05T17:54:01.146Z,6.28
2022-11-05T17:56:34.795Z,7.65
2022-11-05T17:59:03.322Z,6.93
2022-11-05T18:01:33.264Z,7.55
2022-11-05T18:04:05.378Z,7.88
2022-11-05T18:06:35.800Z,7.45
2022-11-05T18:09:05.140Z,8.43
2022-11-05T18:11:33.282Z,7.88
2022-11-05T18:14:00.153Z,9.25
2022-11-05T18:16:27.896Z,10.15
2022-11-05T18:18:54.760Z,9.30
2022-11-05T18:21:21.728Z,11.60
2022-11-05T18:23:48.597Z,11.43
2022-11-05T18:26:16.993Z,12.35
2022-11-05T18:28:44.800Z,10.98
2022-11-05T18:31:20.525Z,9.55
2022-11-05T18:33:50.141Z,10.68
2022-11-05T18:36:23.185Z,9.15
2022-11-05T18:38:50.938Z,9.75
2022-11-05T18:41:19.340Z,11.55
2022-11-05T18:43:46.571Z,13.20
2022-11-05T18:46:35.862Z,10.85
2022-11-05T18:49:00.844Z,10.88
2022-11-05T18:51:28.348Z,12.02
2022-11-05T18:53:56.238Z,11.77
2022-11-05T18:56:23.748Z,10.68
2022-11-05T18:59:08.622Z,10.40
2022-11-05T19:01:40.789Z,12.95
2022-11-05T19:04:07.892Z,12.95
2022-11-05T19:06:36.139Z,11.45
2022-11-05T19:09:04.487Z,10.98
2022-11-05T19:11:31.527Z,8.85
2022-11-05T19:13:58.705Z,7.60
2022-11-05T19:16:28.761Z,8.95
2022-11-05T19:18:59.523Z,9.20
2022-11-05T19:21:27.836Z,8.52
2022-11-05T19:23:59.483Z,9.38
2022-11-05T19:26:28.904Z,7.72
2022-11-05T19:29:02.260Z,10.05
2022-11-05T19:33:57.311Z,8.35
2022-11-05T19:36:25.231Z,8.63
2022-11-05T19:38:58.848Z,7.60
2022-11-05T19:41:27.260Z,9.18
2022-11-05T19:43:55.006Z,7.40
2022-11-05T19:46:24.176Z,8.93
2022-11-05T19:48:51.509Z,6.20
2022-11-05T19:51:23.819Z,7.82
2022-11-05T19:53:55.168Z,7.00
2022-11-05T19:56:30.017Z,7.30
2022-11-05T19:58:58.248Z,8.27
2022-11-05T20:01:28.096Z,7.78
2022-11-05T20:03:57.489Z,6.70
2022-11-05T20:06:32.802Z,6.18
2022-11-05T20:11:53.769Z,6.43
2022-11-05T20:14:20.788Z,6.30
2022-11-05T20:16:47.945Z,6.70
2022-11-05T20:19:18.103Z,6.90
2022-11-05T20:21:45.550Z,6.25
2022-11-05T20:24:20.514Z,6.00
2022-11-05T20:26:51.558Z,6.88
2022-11-05T20:29:18.440Z,6.22
2022-11-05T20:31:45.252Z,7.25
2022-11-05T20:34:12.087Z,8.52
2022-11-05T20:36:39.848Z,5.43
2022-11-05T20:39:07.227Z,6.32
2022-11-05T20:41:34.003Z,6.45
2022-11-05T20:44:01.013Z,4.93
2022-11-05T20:46:28.132Z,5.25
2022-11-05T20:48:55.701Z,5.22
2022-11-05T20:51:24.984Z,6.18
2022-11-05T20:54:00.814Z,6.10
2022-11-05T20:56:32.583Z,5.80
2022-11-05T20:59:00.902Z,5.75
2022-11-05T21:01:31.354Z,5.38
2022-11-05T21:04:00.191Z,5.97
2022-11-05T21:06:27.135Z,6.28
2022-11-05T21:08:54.539Z,5.53
2022-11-05T21:11:21.441Z,6.10
2022-11-05T21:13:48.788Z,5.22
2022-11-05T21:16:21.829Z,5.90
2022-11-05T21:18:48.675Z,5.63
2022-11-05T21:21:19.284Z,4.50
2022-11-05T21:23:46.646Z,5.05
2022-11-05T21:26:15.298Z,4.28
2022-11-05T21:28:42.669Z,4.45
2022-11-05T21:31:10.055Z,5.30
2022-11-05T21:33:38.013Z,5.55
2022-11-05T21:36:13.161Z,5.88
2022-11-05T21:38:41.080Z,5.30
2022-11-05T21:41:10.302Z,5.07
2022-11-05T21:43:39.435Z,4.95
2022-11-05T21:46:06.225Z,5.20
2022-11-05T21:48:33.847Z,5.72
2022-11-05T21:51:19.296Z,4.75
2022-11-05T21:54:04.979Z,5.40
2022-11-05T21:56:50.609Z,5.35
2022-11-05T21:59:41.851Z,5.57
2022-11-05T22:02:11.376Z,6.40
2022-11-05T22:04:45.353Z,5.55
2022-11-05T22:07:15.038Z,5.63
2022-11-05T22:09:42.265Z,4.38
2022-11-05T22:12:09.854Z,4.28
2022-11-05T22:14:37.233Z,4.57
2022-11-05T22:17:05.279Z,4.68
2022-11-05T22:19:32.540Z,4.63
2022-11-05T22:21:59.396Z,4.30
2022-11-05T22:24:31.789Z,4.95
2022-11-05T22:27:01.393Z,4.45
2022-11-05T22:29:28.830Z,5.15
2022-11-05T22:31:56.799Z,4.20
2022-11-05T22:34:25.235Z,4.40
2022-11-05T22:36:52.390Z,4.72
2022-11-05T22:39:19.992Z,5.55
2022-11-05T22:41:47.378Z,4.53
2022-11-05T22:44:16.616Z,4.40
2022-11-05T22:46:43.961Z,4.68
2022-11-05T22:49:11.702Z,5.22
2022-11-05T22:51:39.741Z,4.60
2022-11-05T22:54:07.925Z,4.72
2022-11-05T22:56:40.225Z,4.70
2022-11-05T22:59:10.951Z,5.85
2022-11-05T23:01:38.509Z,5.57
2022-11-05T23:04:05.377Z,5.05
2022-11-05T23:06:52.435Z,6.20
2022-11-05T23:09:45.282Z,5.85
2022-11-05T23:12:34.109Z,5.22
2022-11-05T23:15:03.551Z,3.85
2022-11-05T23:17:49.112Z,4.43
2022-11-05T23:20:41.512Z,3.50
2022-11-05T23:23:31.283Z,4.38
2022-11-05T23:26:00.099Z,3.97
2022-11-05T23:28:27.015Z,3.80
2022-11-05T23:31:12.311Z,4.22
2022-11-05T23:33:39.359Z,4.35
2022-11-05T23:36:24.796Z,3.58
2022-11-05T23:38:51.602Z,3.92
2022-11-05T23:41:36.800Z,3.70
2022-11-05T23:44:22.271Z,4.05
2022-11-05T23:47:07.599Z,3.67
2022-11-05T23:49:34.404Z,4.78
2022-11-05T23:52:01.281Z,4.70
2022-11-05T23:54:29.393Z,4.68
2022-11-05T23:56:56.217Z,5.93
2022-11-05T23:59:23.076Z,6.70
